PWSweather.com
Personal Weather Stations
Station Observations
IROGLAN40
AalgaardNO 4330

AalgaardNO 4330

Lat: 58.773, Lon: 5.846

Elevation: 326

Station Type: Davis Vanatge Pro2

Latest ConditionsUpdated 9:30:01 PM GMT+01:01 Saturday, Jul 30, 2016
Currently Today's Max Today's Min Today's Average
Temperature 54.8°F12.7°C 59.9°F15.5°C 51.3°F10.7°C 55.6°F13.1°C
Dew Point 51.0°F10.6°C 55.0°F12.8°C 48.6°F9.2°C 51.9°F11.1°C
Winds Calm Calm 5.8 mph WNW9.3 kmh WNW - 1.7 mph 2.7 kmh
Wind Gusts -- 8.1 mph13.0 kmh - -
Humidity 87% 91% 77% 87%
Pressure 29.76 in1007.8 mb 29.76 in1007.8 mb 29.71 in1006.1 mb -
Precipitation - 0.07 in1.8 mm - -
Hour Temp Dew Point Humidity Winds Wind Gusts Pressure Precip Precip Rate Daily Precip Total
09:30 PM 54.8°F12.7°C 51.0°F10.6°C 87% Calm Calm -- 29.76 in1007.8 mb - 0.00 in0.0 mm 0.07 in1.8 mm
09:20 PM 54.9°F12.7°C 51.1°F10.6°C 87% Calm Calm 1.2 mph1.9 kmh 29.75 in1007.5 mb - 0.00 in0.0 mm 0.07 in1.8 mm
09:10 PM 54.8°F12.7°C 51.0°F10.6°C 87% 1.2 mph W1.9 kmh W 2.3 mph3.7 kmh 29.75 in1007.5 mb - 0.00 in0.0 mm 0.07 in1.8 mm
09:00 PM 54.8°F12.7°C 51.0°F10.6°C 87% Calm Calm -- 29.75 in1007.5 mb - 0.00 in0.0 mm 0.07 in1.8 mm
08:50 PM 55.0°F12.8°C 50.9°F10.5°C 86% Calm Calm -- 29.75 in1007.5 mb - 0.00 in0.0 mm 0.07 in1.8 mm
08:40 PM 55.4°F13.0°C 51.3°F10.7°C 86% Calm Calm 1.2 mph1.9 kmh 29.75 in1007.5 mb - 0.00 in0.0 mm 0.07 in1.8 mm
08:30 PM 55.9°F13.3°C 51.8°F11.0°C 86% Calm Calm -- 29.75 in1007.5 mb - 0.00 in0.0 mm 0.07 in1.8 mm
08:20 PM 56.3°F13.5°C 52.2°F11.2°C 86% Calm Calm -- 29.75 in1007.5 mb - 0.00 in0.0 mm 0.07 in1.8 mm
08:10 PM 56.3°F13.5°C 52.2°F11.2°C 86% Calm Calm -- 29.75 in1007.5 mb - 0.00 in0.0 mm 0.07 in1.8 mm
08:00 PM 56.3°F13.5°C 51.8°F11.0°C 85% Calm Calm -- 29.75 in1007.5 mb - 0.00 in0.0 mm 0.07 in1.8 mm
07:50 PM 56.4°F13.6°C 51.9°F11.1°C 85% 1.2 mph W1.9 kmh W 2.3 mph3.7 kmh 29.75 in1007.5 mb - 0.00 in0.0 mm 0.07 in1.8 mm
07:40 PM 56.6°F13.7°C 52.1°F11.2°C 85% 2.3 mph NW3.7 kmh NW 5.8 mph9.3 kmh 29.75 in1007.5 mb - 0.00 in0.0 mm 0.07 in1.8 mm
07:30 PM 57.0°F13.9°C 52.5°F11.4°C 85% Calm Calm -- 29.75 in1007.5 mb - 0.00 in0.0 mm 0.07 in1.8 mm
07:20 PM 57.3°F14.1°C 52.5°F11.4°C 84% 1.2 mph NW1.9 kmh NW 3.5 mph5.6 kmh 29.75 in1007.5 mb - 0.00 in0.0 mm 0.07 in1.8 mm
07:10 PM 57.5°F14.2°C 52.4°F11.3°C 83% 1.2 mph NW1.9 kmh NW 3.5 mph5.6 kmh 29.75 in1007.5 mb - 0.00 in0.0 mm 0.07 in1.8 mm
07:00 PM 58.3°F14.6°C 53.1°F11.7°C 83% 3.5 mph NW5.6 kmh NW 4.6 mph7.4 kmh 29.75 in1007.5 mb - 0.00 in0.0 mm 0.07 in1.8 mm
06:50 PM 58.4°F14.7°C 53.9°F12.2°C 85% 3.5 mph W5.6 kmh W 5.8 mph9.3 kmh 29.75 in1007.5 mb - 0.00 in0.0 mm 0.07 in1.8 mm
06:40 PM 57.6°F14.2°C 53.7°F12.1°C 87% 2.3 mph WNW3.7 kmh WNW 4.6 mph7.4 kmh 29.75 in1007.5 mb - 0.00 in0.0 mm 0.07 in1.8 mm
06:30 PM 57.2°F14.0°C 53.6°F12.0°C 88% 1.2 mph W1.9 kmh W 3.5 mph5.6 kmh 29.76 in1007.8 mb - 0.00 in0.0 mm 0.07 in1.8 mm
06:20 PM 57.1°F13.9°C 53.3°F11.8°C 87% 2.3 mph W3.7 kmh W 3.5 mph5.6 kmh 29.75 in1007.5 mb - 0.00 in0.0 mm 0.07 in1.8 mm
06:10 PM 57.0°F13.9°C 53.2°F11.8°C 87% 1.2 mph W1.9 kmh W 3.5 mph5.6 kmh 29.75 in1007.5 mb - 0.00 in0.0 mm 0.07 in1.8 mm
06:00 PM 57.1°F13.9°C 53.0°F11.7°C 86% 3.5 mph W5.6 kmh W 3.5 mph5.6 kmh 29.75 in1007.5 mb - 0.00 in0.0 mm 0.07 in1.8 mm
05:50 PM 57.3°F14.1°C 52.8°F11.6°C 85% 2.3 mph NW3.7 kmh NW 3.5 mph5.6 kmh 29.75 in1007.5 mb - 0.00 in0.0 mm 0.07 in1.8 mm
05:40 PM 57.8°F14.3°C 53.3°F11.8°C 85% 3.5 mph WNW5.6 kmh WNW 6.9 mph11.1 kmh 29.75 in1007.5 mb - 0.00 in0.0 mm 0.07 in1.8 mm
05:30 PM 59.0°F15.0°C 54.9°F12.7°C 86% 4.6 mph NW7.4 kmh NW 6.9 mph11.1 kmh 29.75 in1007.5 mb - 0.00 in0.0 mm 0.07 in1.8 mm
05:20 PM 57.7°F14.3°C 54.2°F12.3°C 88% 2.3 mph WNW3.7 kmh WNW 4.6 mph7.4 kmh 29.76 in1007.8 mb - 0.03 in0.8 mm 0.07 in1.8 mm
05:10 PM 57.3°F14.1°C 53.1°F11.7°C 86% 3.5 mph WSW5.6 kmh WSW 6.9 mph11.1 kmh 29.75 in1007.5 mb - 0.00 in0.0 mm 0.04 in1.0 mm
05:00 PM 57.4°F14.1°C 53.2°F11.8°C 86% 3.5 mph W5.6 kmh W 3.5 mph5.6 kmh 29.75 in1007.5 mb - 0.00 in0.0 mm 0.04 in1.0 mm
04:50 PM 57.7°F14.3°C 53.9°F12.2°C 87% 3.5 mph W5.6 kmh W 3.5 mph5.6 kmh 29.75 in1007.5 mb - 0.00 in0.0 mm 0.04 in1.0 mm
04:40 PM 57.5°F14.2°C 53.6°F12.0°C 87% 2.3 mph WSW3.7 kmh WSW 4.6 mph7.4 kmh 29.75 in1007.5 mb - 0.00 in0.0 mm 0.04 in1.0 mm
04:30 PM 57.4°F14.1°C 53.2°F11.8°C 86% 2.3 mph W3.7 kmh W 4.6 mph7.4 kmh 29.76 in1007.8 mb - 0.01 in0.3 mm 0.04 in1.0 mm
04:20 PM 58.1°F14.5°C 53.0°F11.7°C 83% 4.6 mph WSW7.4 kmh WSW 8.1 mph13.0 kmh 29.75 in1007.5 mb - 0.00 in0.0 mm 0.03 in0.8 mm
04:10 PM 58.2°F14.6°C 52.4°F11.3°C 81% 3.5 mph WNW5.6 kmh WNW 8.1 mph13.0 kmh 29.75 in1007.5 mb - 0.00 in0.0 mm 0.03 in0.8 mm
04:00 PM 58.9°F14.9°C 52.8°F11.6°C 80% 3.5 mph WNW5.6 kmh WNW 8.1 mph13.0 kmh 29.75 in1007.5 mb - 0.00 in0.0 mm 0.03 in0.8 mm
03:50 PM 59.1°F15.1°C 52.6°F11.4°C 79% 4.6 mph NW7.4 kmh NW 8.1 mph13.0 kmh 29.75 in1007.5 mb - 0.00 in0.0 mm 0.03 in0.8 mm
03:40 PM 59.1°F15.1°C 53.3°F11.8°C 81% 2.3 mph W3.7 kmh W 5.8 mph9.3 kmh 29.75 in1007.5 mb - 0.00 in0.0 mm 0.03 in0.8 mm
03:30 PM 59.2°F15.1°C 52.7°F11.5°C 79% 3.5 mph WNW5.6 kmh WNW 5.8 mph9.3 kmh 29.75 in1007.5 mb - 0.00 in0.0 mm 0.03 in0.8 mm
03:20 PM 59.9°F15.5°C 52.7°F11.5°C 77% 4.6 mph W7.4 kmh W 8.1 mph13.0 kmh 29.75 in1007.5 mb - 0.00 in0.0 mm 0.03 in0.8 mm
03:10 PM 59.1°F15.1°C 52.6°F11.4°C 79% 3.5 mph W5.6 kmh W 6.9 mph11.1 kmh 29.75 in1007.5 mb - 0.00 in0.0 mm 0.03 in0.8 mm
03:00 PM 58.7°F14.8°C 52.5°F11.4°C 80% 4.6 mph NW7.4 kmh NW 5.8 mph9.3 kmh 29.75 in1007.5 mb - 0.00 in0.0 mm 0.03 in0.8 mm
02:50 PM 59.3°F15.2°C 52.8°F11.6°C 79% 4.6 mph WNW7.4 kmh WNW 5.8 mph9.3 kmh 29.75 in1007.5 mb - 0.00 in0.0 mm 0.03 in0.8 mm
02:40 PM 59.4°F15.2°C 53.6°F12.0°C 81% 3.5 mph W5.6 kmh W 6.9 mph11.1 kmh 29.75 in1007.5 mb - 0.00 in0.0 mm 0.03 in0.8 mm
02:30 PM 59.3°F15.2°C 53.8°F12.1°C 82% 5.8 mph WNW9.3 kmh WNW 6.9 mph11.1 kmh 29.75 in1007.5 mb - 0.00 in0.0 mm 0.03 in0.8 mm
02:20 PM 58.8°F14.9°C 52.6°F11.4°C 80% 3.5 mph W5.6 kmh W 4.6 mph7.4 kmh 29.75 in1007.5 mb - 0.00 in0.0 mm 0.03 in0.8 mm
02:10 PM 58.4°F14.7°C 54.5°F12.5°C 87% 3.5 mph WSW5.6 kmh WSW 4.6 mph7.4 kmh 29.74 in1007.1 mb - 0.00 in0.0 mm 0.03 in0.8 mm
02:00 PM 57.7°F14.3°C 53.8°F12.1°C 87% 3.5 mph W5.6 kmh W 5.8 mph9.3 kmh 29.74 in1007.1 mb - 0.00 in0.0 mm 0.03 in0.8 mm
01:50 PM 57.6°F14.2°C 53.1°F11.7°C 85% 2.3 mph WSW3.7 kmh WSW 3.5 mph5.6 kmh 29.75 in1007.5 mb - 0.01 in0.3 mm 0.03 in0.8 mm
01:40 PM 58.5°F14.7°C 53.3°F11.8°C 83% 4.6 mph WNW7.4 kmh WNW 8.1 mph13.0 kmh 29.75 in1007.5 mb - 0.00 in0.0 mm 0.02 in0.5 mm
01:30 PM 59.2°F15.1°C 54.0°F12.2°C 83% 2.3 mph WSW3.7 kmh WSW 3.5 mph5.6 kmh 29.74 in1007.1 mb - 0.00 in0.0 mm 0.02 in0.5 mm
01:20 PM 59.9°F15.5°C 55.0°F12.8°C 84% 2.3 mph WNW3.7 kmh WNW 3.5 mph5.6 kmh 29.74 in1007.1 mb - 0.00 in0.0 mm 0.02 in0.5 mm
01:10 PM 57.5°F14.2°C 53.1°F11.7°C 85% 3.5 mph NW5.6 kmh NW 5.8 mph9.3 kmh 29.75 in1007.5 mb - 0.00 in0.0 mm 0.02 in0.5 mm
01:00 PM 56.6°F13.7°C 52.5°F11.4°C 86% 2.3 mph W3.7 kmh W 4.6 mph7.4 kmh 29.75 in1007.5 mb - 0.00 in0.0 mm 0.02 in0.5 mm
12:50 PM 56.7°F13.7°C 52.9°F11.6°C 87% 2.3 mph WNW3.7 kmh WNW 3.5 mph5.6 kmh 29.75 in1007.5 mb - 0.00 in0.0 mm 0.02 in0.5 mm
12:40 PM 56.5°F13.6°C 52.7°F11.5°C 87% 4.6 mph WNW7.4 kmh WNW 5.8 mph9.3 kmh 29.74 in1007.1 mb - 0.00 in0.0 mm 0.02 in0.5 mm
12:30 PM 56.9°F13.8°C 53.0°F11.7°C 87% 4.6 mph NW7.4 kmh NW 4.6 mph7.4 kmh 29.74 in1007.1 mb - 0.00 in0.0 mm 0.02 in0.5 mm
12:20 PM 58.5°F14.7°C 54.6°F12.6°C 87% 4.6 mph W7.4 kmh W 8.1 mph13.0 kmh 29.74 in1007.1 mb - 0.00 in0.0 mm 0.02 in0.5 mm
12:10 PM 57.6°F14.2°C 53.7°F12.1°C 87% 4.6 mph NW7.4 kmh NW 5.8 mph9.3 kmh 29.74 in1007.1 mb - 0.00 in0.0 mm 0.02 in0.5 mm
12:00 PM 57.3°F14.1°C 53.5°F11.9°C 87% 3.5 mph WNW5.6 kmh WNW 4.6 mph7.4 kmh 29.74 in1007.1 mb - 0.00 in0.0 mm 0.02 in0.5 mm
11:50 AM 57.6°F14.2°C 53.4°F11.9°C 86% 3.5 mph NW5.6 kmh NW 4.6 mph7.4 kmh 29.74 in1007.1 mb - 0.00 in0.0 mm 0.02 in0.5 mm
11:40 AM 58.0°F14.4°C 54.2°F12.3°C 87% 4.6 mph WSW7.4 kmh WSW 6.9 mph11.1 kmh 29.73 in1006.8 mb - 0.00 in0.0 mm 0.02 in0.5 mm
11:30 AM 58.0°F14.4°C 54.2°F12.3°C 87% 3.5 mph WNW5.6 kmh WNW 6.9 mph11.1 kmh 29.73 in1006.8 mb - 0.00 in0.0 mm 0.02 in0.5 mm
11:20 AM 57.8°F14.3°C 54.0°F12.2°C 87% 3.5 mph W5.6 kmh W 3.5 mph5.6 kmh 29.73 in1006.8 mb - 0.01 in0.3 mm 0.02 in0.5 mm
11:10 AM 57.4°F14.1°C 53.5°F11.9°C 87% 3.5 mph WNW5.6 kmh WNW 6.9 mph11.1 kmh 29.73 in1006.8 mb - 0.00 in0.0 mm 0.02 in0.5 mm
11:00 AM 57.7°F14.3°C 54.1°F12.3°C 88% 3.5 mph W5.6 kmh W 3.5 mph5.6 kmh 29.73 in1006.8 mb - 0.00 in0.0 mm 0.02 in0.5 mm
10:50 AM 57.9°F14.4°C 54.3°F12.4°C 88% 2.3 mph WSW3.7 kmh WSW 4.6 mph7.4 kmh 29.73 in1006.8 mb - 0.00 in0.0 mm 0.02 in0.5 mm
10:40 AM 58.0°F14.4°C 54.8°F12.7°C 89% Calm Calm 3.5 mph5.6 kmh 29.73 in1006.8 mb - 0.00 in0.0 mm 0.02 in0.5 mm
10:30 AM 57.0°F13.9°C 53.8°F12.1°C 89% 2.3 mph NW3.7 kmh NW 3.5 mph5.6 kmh 29.73 in1006.8 mb - 0.00 in0.0 mm 0.02 in0.5 mm
10:20 AM 55.9°F13.3°C 53.0°F11.7°C 90% 2.3 mph W3.7 kmh W 3.5 mph5.6 kmh 29.73 in1006.8 mb - 0.00 in0.0 mm 0.02 in0.5 mm
10:10 AM 55.8°F13.2°C 52.9°F11.6°C 90% 2.3 mph WNW3.7 kmh WNW 3.5 mph5.6 kmh 29.73 in1006.8 mb - 0.00 in0.0 mm 0.02 in0.5 mm
10:00 AM 55.9°F13.3°C 52.7°F11.5°C 89% 3.5 mph W5.6 kmh W 4.6 mph7.4 kmh 29.73 in1006.8 mb - 0.01 in0.3 mm 0.02 in0.5 mm
09:50 AM 56.7°F13.7°C 53.8°F12.1°C 90% 5.8 mph WNW9.3 kmh WNW 8.1 mph13.0 kmh 29.72 in1006.4 mb - 0.00 in0.0 mm 0.01 in0.3 mm
09:40 AM 56.6°F13.7°C 53.7°F12.1°C 90% 1.2 mph W1.9 kmh W 3.5 mph5.6 kmh 29.72 in1006.4 mb - 0.00 in0.0 mm 0.01 in0.3 mm
09:30 AM 56.6°F13.7°C 53.7°F12.1°C 90% 2.3 mph WNW3.7 kmh WNW 4.6 mph7.4 kmh 29.72 in1006.4 mb - 0.00 in0.0 mm 0.01 in0.3 mm
09:20 AM 56.1°F13.4°C 53.2°F11.8°C 90% 3.5 mph WNW5.6 kmh WNW 4.6 mph7.4 kmh 29.72 in1006.4 mb - 0.00 in0.0 mm 0.01 in0.3 mm
09:10 AM 55.9°F13.3°C 53.0°F11.7°C 90% 2.3 mph W3.7 kmh W 5.8 mph9.3 kmh 29.72 in1006.4 mb - 0.00 in0.0 mm 0.01 in0.3 mm
09:00 AM 55.7°F13.2°C 52.8°F11.6°C 90% 2.3 mph NW3.7 kmh NW 3.5 mph5.6 kmh 29.72 in1006.4 mb - 0.00 in0.0 mm 0.01 in0.3 mm
08:50 AM 55.5°F13.1°C 52.6°F11.4°C 90% 2.3 mph WNW3.7 kmh WNW 3.5 mph5.6 kmh 29.72 in1006.4 mb - 0.00 in0.0 mm 0.01 in0.3 mm
08:40 AM 55.3°F12.9°C 52.4°F11.3°C 90% 2.3 mph WNW3.7 kmh WNW 3.5 mph5.6 kmh 29.72 in1006.4 mb - 0.00 in0.0 mm 0.01 in0.3 mm
07:20 AM 54.5°F12.5°C 51.6°F10.9°C 90% Calm Calm -- 29.72 in1006.4 mb - 0.00 in0.0 mm 0.01 in0.3 mm
07:10 AM 54.1°F12.3°C 51.2°F10.7°C 90% Calm Calm -- 29.71 in1006.1 mb - 0.00 in0.0 mm 0.01 in0.3 mm
07:00 AM 54.1°F12.3°C 51.2°F10.7°C 90% 1.2 mph SE1.9 kmh SE 3.5 mph5.6 kmh 29.71 in1006.1 mb - 0.00 in0.0 mm 0.01 in0.3 mm
06:50 AM 54.2°F12.3°C 51.3°F10.7°C 90% Calm Calm -- 29.71 in1006.1 mb - 0.00 in0.0 mm 0.01 in0.3 mm
06:40 AM 54.0°F12.2°C 51.1°F10.6°C 90% Calm Calm -- 29.72 in1006.4 mb - 0.00 in0.0 mm 0.01 in0.3 mm
06:30 AM 53.6°F12.0°C 50.7°F10.4°C 90% Calm Calm -- 29.72 in1006.4 mb - 0.00 in0.0 mm 0.01 in0.3 mm
06:20 AM 53.3°F11.8°C 50.5°F10.3°C 90% Calm Calm -- 29.71 in1006.1 mb - 0.00 in0.0 mm 0.01 in0.3 mm
06:10 AM 53.0°F11.7°C 50.2°F10.1°C 90% Calm Calm -- 29.72 in1006.4 mb - 0.00 in0.0 mm 0.01 in0.3 mm
06:00 AM 52.8°F11.6°C 49.9°F9.9°C 90% Calm Calm -- 29.72 in1006.4 mb - 0.00 in0.0 mm 0.01 in0.3 mm
05:50 AM 52.6°F11.4°C 49.8°F9.9°C 90% Calm Calm -- 29.72 in1006.4 mb - 0.01 in0.3 mm 0.01 in0.3 mm
05:40 AM 52.4°F11.3°C 49.8°F9.9°C 91% Calm Calm -- 29.72 in1006.4 mb - 0.00 in0.0 mm 0.00 in0.0 mm
05:30 AM 52.2°F11.2°C 49.4°F9.7°C 90% Calm Calm -- 29.72 in1006.4 mb - 0.00 in0.0 mm 0.00 in0.0 mm
05:20 AM 51.9°F11.1°C 49.4°F9.7°C 91% Calm Calm -- 29.72 in1006.4 mb - 0.00 in0.0 mm 0.00 in0.0 mm
05:10 AM 51.6°F10.9°C 48.8°F9.3°C 90% Calm Calm -- 29.71 in1006.1 mb - 0.00 in0.0 mm 0.00 in0.0 mm
05:00 AM 51.6°F10.9°C 48.7°F9.3°C 90% Calm Calm -- 29.71 in1006.1 mb - 0.00 in0.0 mm 0.00 in0.0 mm
04:50 AM 51.6°F10.9°C 48.7°F9.3°C 90% Calm Calm -- 29.72 in1006.4 mb - 0.00 in0.0 mm 0.00 in0.0 mm
04:40 AM 51.4°F10.8°C 48.6°F9.2°C 90% Calm Calm -- 29.72 in1006.4 mb - 0.00 in0.0 mm 0.00 in0.0 mm
04:30 AM 51.5°F10.8°C 48.7°F9.3°C 90% Calm Calm -- 29.72 in1006.4 mb - 0.00 in0.0 mm 0.00 in0.0 mm
04:20 AM 51.5°F10.8°C 48.7°F9.3°C 90% Calm Calm -- 29.71 in1006.1 mb - 0.00 in0.0 mm 0.00 in0.0 mm
04:10 AM 51.4°F10.8°C 48.6°F9.2°C 90% Calm Calm -- 29.71 in1006.1 mb - 0.00 in0.0 mm 0.00 in0.0 mm
04:00 AM 51.5°F10.8°C 48.7°F9.3°C 90% Calm Calm -- 29.72 in1006.4 mb - 0.00 in0.0 mm 0.00 in0.0 mm
03:50 AM 51.6°F10.9°C 48.8°F9.3°C 90% Calm Calm -- 29.72 in1006.4 mb - 0.00 in0.0 mm 0.00 in0.0 mm
03:40 AM 51.7°F10.9°C 48.9°F9.4°C 90% Calm Calm -- 29.72 in1006.4 mb - 0.00 in0.0 mm 0.00 in0.0 mm
03:30 AM 51.8°F11.0°C 49.3°F9.6°C 91% Calm Calm -- 29.72 in1006.4 mb - 0.00 in0.0 mm 0.00 in0.0 mm
03:20 AM 52.0°F11.1°C 49.5°F9.7°C 91% Calm Calm -- 29.72 in1006.4 mb - 0.00 in0.0 mm 0.00 in0.0 mm
03:10 AM 52.3°F11.3°C 49.5°F9.7°C 90% Calm Calm -- 29.72 in1006.4 mb - 0.00 in0.0 mm 0.00 in0.0 mm
03:00 AM 52.3°F11.3°C 49.5°F9.7°C 90% Calm Calm -- 29.72 in1006.4 mb - 0.00 in0.0 mm 0.00 in0.0 mm
02:50 AM 52.1°F11.2°C 49.3°F9.6°C 90% Calm Calm -- 29.72 in1006.4 mb - 0.00 in0.0 mm 0.00 in0.0 mm
02:40 AM 52.0°F11.1°C 49.4°F9.7°C 91% Calm Calm -- 29.72 in1006.4 mb - 0.00 in0.0 mm 0.00 in0.0 mm
02:30 AM 51.8°F11.0°C 49.3°F9.6°C 91% Calm Calm -- 29.72 in1006.4 mb - 0.00 in0.0 mm 0.00 in0.0 mm
02:20 AM 51.3°F10.7°C 48.8°F9.3°C 91% Calm Calm -- 29.72 in1006.4 mb - 0.00 in0.0 mm 0.00 in0.0 mm
02:10 AM 51.4°F10.8°C 48.9°F9.4°C 91% Calm Calm -- 29.72 in1006.4 mb - 0.00 in0.0 mm 0.00 in0.0 mm
02:00 AM 51.5°F10.8°C 49.0°F9.4°C 91% Calm Calm -- 29.72 in1006.4 mb - 0.00 in0.0 mm 0.00 in0.0 mm
01:50 AM 51.7°F10.9°C 49.2°F9.6°C 91% Calm Calm -- 29.72 in1006.4 mb - 0.00 in0.0 mm 0.00 in0.0 mm
01:40 AM 52.0°F11.1°C 49.5°F9.7°C 91% Calm Calm -- 29.72 in1006.4 mb - 0.00 in0.0 mm 0.00 in0.0 mm
01:30 AM 52.2°F11.2°C 49.4°F9.7°C 90% Calm Calm -- 29.72 in1006.4 mb - 0.00 in0.0 mm 0.00 in0.0 mm
01:20 AM 52.4°F11.3°C 49.8°F9.9°C 91% Calm Calm -- 29.73 in1006.8 mb - 0.00 in0.0 mm 0.00 in0.0 mm
01:10 AM 52.9°F11.6°C 50.0°F10.0°C 90% Calm Calm -- 29.72 in1006.4 mb - 0.00 in0.0 mm 0.00 in0.0 mm
01:00 AM 53.3°F11.8°C 50.4°F10.2°C 90% Calm Calm -- 29.72 in1006.4 mb - 0.00 in0.0 mm 0.00 in0.0 mm
12:50 AM 53.7°F12.1°C 50.8°F10.4°C 90% Calm Calm -- 29.72 in1006.4 mb - 0.00 in0.0 mm 0.00 in0.0 mm
12:40 AM 54.1°F12.3°C 51.2°F10.7°C 90% Calm Calm -- 29.72 in1006.4 mb - 0.00 in0.0 mm 0.00 in0.0 mm
12:30 AM 54.5°F12.5°C 51.6°F10.9°C 90% Calm Calm -- 29.72 in1006.4 mb - 0.00 in0.0 mm 0.00 in0.0 mm
12:20 AM 54.8°F12.7°C 51.9°F11.1°C 90% Calm Calm -- 29.72 in1006.4 mb - 0.00 in0.0 mm 0.00 in0.0 mm
12:10 AM 55.0°F12.8°C 52.2°F11.2°C 90% Calm Calm -- 29.72 in1006.4 mb - 0.00 in0.0 mm 0.00 in0.0 mm
12:00 AM 55.1°F12.8°C 52.2°F11.2°C 90% Calm Calm -- 29.72 in1006.4 mb - 0.00 in0.0 mm 0.00 in0.0 mm